createdAt,value
2019-04-20T00:00:59.756Z,5.97
2019-04-20T00:03:36.703Z,6.10
2019-04-20T00:06:01.523Z,6.47
2019-04-20T00:08:36.108Z,6.03
2019-04-20T00:11:10.608Z,5.83
2019-04-20T00:13:47.757Z,5.93
2019-04-20T00:16:08.372Z,5.80
2019-04-20T00:18:42.967Z,6.10
2019-04-20T00:21:28.936Z,5.37
2019-04-20T00:24:11.457Z,5.70
2019-04-20T00:27:04.753Z,6.50
2019-04-20T00:29:27.721Z,6.22
2019-04-20T00:31:48.946Z,6.70
2019-04-20T00:34:17.296Z,6.67
2019-04-20T00:36:41.153Z,6.60
2019-04-20T00:39:13.188Z,5.93
2019-04-20T00:41:49.034Z,6.33
2019-04-20T00:44:22.068Z,5.93
2019-04-20T00:46:57.933Z,6.37
2019-04-20T00:49:30.521Z,6.27
2019-04-20T00:52:13.127Z,6.60
2019-04-20T00:54:20.146Z,6.67
2019-04-20T00:56:49.958Z,6.40
2019-04-20T00:59:31.604Z,6.83
2019-04-20T01:02:09.090Z,6.50
2019-04-20T01:04:41.069Z,6.73
2019-04-20T01:07:38.569Z,6.80
2019-04-20T01:10:13.146Z,6.37
2019-04-20T01:12:44.492Z,6.93
2019-04-20T01:15:26.559Z,6.30
2019-04-20T01:17:46.851Z,7.23
2019-04-20T01:20:16.574Z,6.97
2019-04-20T01:22:55.981Z,7.17
2019-04-20T01:25:26.454Z,7.40
2019-04-20T01:28:07.778Z,7.07
2019-04-20T01:30:28.418Z,7.50
2019-04-20T01:33:04.847Z,7.20
2019-04-20T01:35:39.446Z,7.53
2019-04-20T01:38:12.190Z,7.03
2019-04-20T01:40:27.503Z,6.77
2019-04-20T01:42:57.541Z,7.00
2019-04-20T01:45:32.843Z,7.00
2019-04-20T01:48:01.239Z,7.17
2019-04-20T01:50:34.990Z,6.93
2019-04-20T01:53:13.866Z,7.17
2019-04-20T01:55:50.432Z,7.47
2019-04-20T01:58:35.187Z,7.37
2019-04-20T02:01:09.809Z,7.40
2019-04-20T02:03:48.473Z,7.30
2019-04-20T02:06:20.196Z,7.47
2019-04-20T02:08:52.896Z,7.60
2019-04-20T02:11:26.076Z,7.83
2019-04-20T02:13:57.247Z,7.20
2019-04-20T02:16:31.775Z,7.40
2019-04-20T02:19:09.077Z,7.43
2019-04-20T02:21:45.070Z,7.37
2019-04-20T02:24:02.701Z,7.57
2019-04-20T02:26:30.224Z,6.87
2019-04-20T02:29:24.636Z,7.73
2019-04-20T02:34:54.652Z,7.00
2019-04-20T02:37:49.449Z,7.43
2019-04-20T02:40:09.207Z,7.93
2019-04-20T02:42:46.682Z,7.93
2019-04-20T02:45:17.552Z,8.07
2019-04-20T02:47:45.591Z,8.30
2019-04-20T02:52:56.806Z,7.97
2019-04-20T02:55:28.184Z,8.80
2019-04-20T02:57:55.116Z,8.20
2019-04-20T03:02:36.902Z,8.37
2019-04-20T03:05:08.164Z,9.20
2019-04-20T03:07:41.060Z,8.73
2019-04-20T03:10:14.085Z,9.60
2019-04-20T03:12:44.810Z,8.77
2019-04-20T03:15:15.079Z,9.20
2019-04-20T03:17:51.172Z,9.00
2019-04-20T03:20:23.296Z,8.80
2019-04-20T03:23:21.350Z,9.20
2019-04-20T03:25:49.286Z,9.30
2019-04-20T03:28:16.723Z,9.70
2019-04-20T03:36:12.405Z,9.63
2019-04-20T03:38:33.280Z,9.53
2019-04-20T03:40:54.247Z,9.20
2019-04-20T03:43:13.898Z,10.20
2019-04-20T03:45:52.675Z,9.63
2019-04-20T03:48:33.345Z,9.77
2019-04-20T03:51:09.016Z,9.63
2019-04-20T03:53:39.544Z,9.50
2019-04-20T03:56:36.562Z,9.40
2019-04-20T03:59:01.774Z,10.27
2019-04-20T04:02:09.294Z,8.87
2019-04-20T04:04:27.638Z,9.30
2019-04-20T04:06:44.836Z,9.73
2019-04-20T04:09:22.183Z,9.43
2019-04-20T04:11:56.138Z,9.50
2019-04-20T04:14:13.635Z,10.07
2019-04-20T04:16:49.837Z,9.77
2019-04-20T04:19:22.675Z,9.50
2019-04-20T04:22:01.350Z,9.83
2019-04-20T04:24:29.205Z,10.00
2019-04-20T04:27:04.676Z,10.47
2019-04-20T04:29:44.171Z,10.17
2019-04-20T04:32:49.688Z,10.80
2019-04-20T04:34:45.894Z,9.90
2019-04-20T04:37:17.566Z,10.23
2019-04-20T04:39:51.780Z,10.80
2019-04-20T04:42:34.204Z,10.77
2019-04-20T04:44:42.215Z,10.53
2019-04-20T04:47:06.345Z,10.33
2019-04-20T04:49:38.182Z,10.40
2019-04-20T04:52:10.225Z,10.40
2019-04-20T04:54:46.249Z,10.67
2019-04-20T04:57:07.409Z,11.17
2019-04-20T04:59:38.429Z,10.80
2019-04-20T05:02:09.687Z,10.97
2019-04-20T05:05:25.448Z,11.47
2019-04-20T05:07:49.607Z,10.30
2019-04-20T05:10:07.742Z,11.07
2019-04-20T05:12:39.267Z,10.60
2019-04-20T05:15:15.980Z,10.60
2019-04-20T05:18:04.362Z,10.80
2019-04-20T05:20:38.780Z,10.53
2019-04-20T05:23:12.987Z,11.13
2019-04-20T05:26:07.897Z,10.30
2019-04-20T05:28:27.821Z,10.23
2019-04-20T05:30:52.480Z,9.77
2019-04-20T05:33:27.506Z,10.17
2019-04-20T05:36:13.882Z,9.43
2019-04-20T05:41:11.678Z,10.00
2019-04-20T05:43:54.755Z,9.17
2019-04-20T05:46:32.005Z,8.30
2019-04-20T05:49:02.778Z,8.60
2019-04-20T05:51:36.583Z,9.47
2019-04-20T05:54:09.865Z,9.00
2019-04-20T05:56:40.274Z,8.83
2019-04-20T05:59:05.852Z,8.23
2019-04-20T06:01:47.495Z,8.75
2019-04-20T06:04:10.445Z,8.20
2019-04-20T06:06:46.567Z,9.25
2019-04-20T06:09:18.240Z,8.63
2019-04-20T06:12:01.367Z,8.33
2019-04-20T06:14:10.212Z,8.70
2019-04-20T06:17:15.923Z,9.20
2019-04-20T06:19:48.854Z,8.43
2019-04-20T06:22:33.708Z,9.30
2019-04-20T06:25:21.964Z,9.30
2019-04-20T06:27:41.068Z,9.03
2019-04-20T06:30:05.870Z,9.10
2019-04-20T06:33:07.852Z,9.13
2019-04-20T06:35:59.054Z,9.00
2019-04-20T06:38:11.719Z,8.60
2019-04-20T06:41:00.621Z,8.25
2019-04-20T06:43:04.120Z,8.28
2019-04-20T06:45:44.448Z,7.92
2019-04-20T06:48:20.341Z,8.03
2019-04-20T06:50:38.824Z,8.28
2019-04-20T06:53:37.004Z,8.18
2019-04-20T06:56:10.059Z,7.37
2019-04-20T06:58:46.461Z,7.55
2019-04-20T07:01:10.869Z,7.40
2019-04-20T07:03:51.360Z,7.22
2019-04-20T07:06:30.877Z,6.85
2019-04-20T07:11:19.879Z,7.53
2019-04-20T07:13:36.099Z,7.00
2019-04-20T07:16:33.016Z,7.25
2019-04-20T07:19:22.958Z,6.72
2019-04-20T07:22:27.092Z,7.22
2019-04-20T07:24:59.263Z,6.90
2019-04-20T07:27:19.557Z,6.62
2019-04-20T07:29:51.895Z,7.20
2019-04-20T07:32:19.491Z,6.87
2019-04-20T07:34:56.699Z,6.40
2019-04-20T07:40:16.196Z,6.50
2019-04-20T07:42:49.176Z,6.35
2019-04-20T07:45:24.064Z,5.45
2019-04-20T07:48:09.709Z,5.65
2019-04-20T07:50:12.890Z,6.15
2019-04-20T07:52:39.679Z,5.83
2019-04-20T07:57:47.105Z,5.67
2019-04-20T08:00:35.562Z,4.75
2019-04-20T08:03:20.411Z,5.70
2019-04-20T08:05:49.866Z,5.55
2019-04-20T08:08:40.644Z,5.12
2019-04-20T08:11:01.280Z,5.35
2019-04-20T08:13:40.346Z,5.40
2019-04-20T08:16:06.671Z,5.10
2019-04-20T08:18:44.493Z,5.25
2019-04-20T08:21:09.598Z,5.03
2019-04-20T08:23:39.059Z,5.05
2019-04-20T08:26:01.794Z,5.00
2019-04-20T08:28:37.185Z,4.97
2019-04-20T08:31:33.770Z,4.90
2019-04-20T08:34:24.716Z,4.65
2019-04-20T08:36:47.988Z,4.95
2019-04-20T08:41:53.219Z,5.45
2019-04-20T08:44:42.734Z,5.42
2019-04-20T08:46:58.484Z,5.22
2019-04-20T08:49:29.579Z,5.15
2019-04-20T08:52:06.078Z,5.37
2019-04-20T08:54:21.636Z,4.80
2019-04-20T08:56:45.186Z,5.12
2019-04-20T08:59:09.569Z,4.85
2019-04-20T09:01:40.879Z,5.12
2019-04-20T09:04:17.683Z,4.78
2019-04-20T09:06:57.411Z,5.27
2019-04-20T09:09:49.960Z,5.10
2019-04-20T09:12:05.317Z,4.70
2019-04-20T09:14:21.528Z,4.75
2019-04-20T09:17:08.121Z,4.47
2019-04-20T09:19:47.051Z,4.25
2019-04-20T09:22:34.080Z,4.45
2019-04-20T09:25:36.484Z,4.67
2019-04-20T09:27:38.380Z,4.15
2019-04-20T09:30:17.716Z,4.42
2019-04-20T09:32:59.247Z,4.42
2019-04-20T09:35:30.132Z,4.08
2019-04-20T09:38:01.736Z,4.12
2019-04-20T09:40:41.653Z,4.70
2019-04-20T09:43:10.880Z,4.08
2019-04-20T09:45:48.557Z,4.00
2019-04-20T09:48:23.969Z,3.92
2019-04-20T09:51:12.707Z,4.37
2019-04-20T09:53:33.882Z,4.00
2019-04-20T09:56:07.535Z,3.67
2019-04-20T09:58:38.190Z,4.45
2019-04-20T10:01:09.759Z,4.25
2019-04-20T10:03:26.840Z,4.05
2019-04-20T10:05:56.644Z,3.70
2019-04-20T10:08:26.753Z,4.08
2019-04-20T10:10:56.467Z,4.40
2019-04-20T10:13:27.168Z,3.60
2019-04-20T10:15:57.748Z,3.83
2019-04-20T10:18:28.200Z,4.00
2019-04-20T10:20:57.995Z,3.85
2019-04-20T10:23:27.767Z,3.83
2019-04-20T10:25:58.590Z,3.35
2019-04-20T10:28:29.645Z,3.80
2019-04-20T10:30:59.458Z,3.83
2019-04-20T10:33:29.198Z,3.52
2019-04-20T10:35:59.821Z,3.70
2019-04-20T10:38:33.752Z,3.65
2019-04-20T10:41:11.641Z,3.67
2019-04-20T10:43:35.070Z,3.30
2019-04-20T10:46:06.802Z,3.17
2019-04-20T10:48:42.988Z,3.45
2019-04-20T10:51:08.610Z,4.50
2019-04-20T10:53:38.417Z,4.00
2019-04-20T10:56:09.617Z,3.30
2019-04-20T10:58:40.042Z,2.87
2019-04-20T11:01:11.435Z,2.80
2019-04-20T11:03:42.637Z,2.77
2019-04-20T11:06:12.578Z,2.45
2019-04-20T11:08:42.546Z,2.65
2019-04-20T11:11:25.234Z,2.85
2019-04-20T11:13:51.137Z,3.27
2019-04-20T11:16:22.046Z,3.05
2019-04-20T11:18:53.495Z,3.00
2019-04-20T11:21:24.621Z,2.98
2019-04-20T11:23:56.152Z,3.35
2019-04-20T11:26:28.483Z,4.00
2019-04-20T11:28:58.336Z,2.92
2019-04-20T11:31:37.317Z,2.90
2019-04-20T11:34:00.414Z,3.12
2019-04-20T11:36:30.983Z,3.27
2019-04-20T11:39:03.044Z,3.42
2019-04-20T11:41:36.985Z,3.17
2019-04-20T11:44:05.895Z,3.40
2019-04-20T11:46:36.623Z,3.47
2019-04-20T11:49:07.896Z,3.37
2019-04-20T11:51:37.786Z,3.60
2019-04-20T11:54:08.263Z,3.67
2019-04-20T11:56:40.743Z,3.80
2019-04-20T11:59:09.597Z,3.92
2019-04-20T12:02:02.507Z,3.85
2019-04-20T12:04:44.213Z,3.70
2019-04-20T12:07:10.934Z,3.62
2019-04-20T12:09:41.837Z,4.03
2019-04-20T12:12:26.780Z,4.15
2019-04-20T12:14:43.023Z,4.05
2019-04-20T12:17:13.577Z,3.50
2019-04-20T12:19:43.885Z,3.70
2019-04-20T12:22:14.038Z,3.83
2019-04-20T12:24:44.791Z,3.80
2019-04-20T12:27:14.685Z,3.90
2019-04-20T12:29:45.652Z,4.10
2019-04-20T12:32:16.713Z,3.98
2019-04-20T12:34:47.455Z,3.85
2019-04-20T12:37:18.497Z,3.92
2019-04-20T12:39:49.181Z,4.33
2019-04-20T12:42:19.253Z,4.20
2019-04-20T12:44:50.079Z,3.77
2019-04-20T12:47:21.371Z,4.15
2019-04-20T12:49:51.720Z,4.65
2019-04-20T12:52:22.780Z,4.70
2019-04-20T12:54:52.597Z,4.60
2019-04-20T12:57:22.705Z,4.50
2019-04-20T12:59:53.902Z,5.35
2019-04-20T13:02:25.141Z,5.15
2019-04-20T13:04:55.380Z,5.10
2019-04-20T13:07:26.638Z,5.00
2019-04-20T13:09:56.882Z,5.42
2019-04-20T13:12:44.797Z,4.72
2019-04-20T13:15:38.333Z,4.60
2019-04-20T13:18:09.456Z,5.85
2019-04-20T13:20:39.763Z,5.35
2019-04-20T13:23:10.881Z,6.33
2019-04-20T13:25:41.206Z,6.30
2019-04-20T13:28:11.258Z,5.92
2019-04-20T13:30:41.902Z,6.05
2019-04-20T13:33:12.250Z,6.05
2019-04-20T13:35:42.288Z,6.42
2019-04-20T13:38:13.920Z,6.40
2019-04-20T13:40:44.033Z,6.53
2019-04-20T13:43:14.095Z,5.97
2019-04-20T13:45:44.743Z,6.62
2019-04-20T13:48:15.133Z,6.45
2019-04-20T13:50:46.387Z,6.00
2019-04-20T13:53:17.034Z,6.75
2019-04-20T13:55:47.724Z,5.78
2019-04-20T13:58:35.970Z,5.78
2019-04-20T14:01:23.223Z,6.50
2019-04-20T14:04:10.665Z,4.97
2019-04-20T14:06:41.479Z,6.62
2019-04-20T14:09:11.825Z,7.10
2019-04-20T14:11:43.331Z,7.55
2019-04-20T14:14:13.261Z,6.55
2019-04-20T14:16:43.118Z,7.28
2019-04-20T14:19:14.286Z,7.10
2019-04-20T14:21:44.413Z,7.05
2019-04-20T14:24:15.047Z,6.87
2019-04-20T14:26:45.759Z,7.37
2019-04-20T14:29:16.864Z,7.20
2019-04-20T14:31:47.918Z,6.85
2019-04-20T14:34:17.878Z,6.83
2019-04-20T14:36:48.819Z,7.95
2019-04-20T14:39:20.386Z,7.15
2019-04-20T14:41:51.912Z,6.75
2019-04-20T14:44:21.684Z,6.70
2019-04-20T14:46:52.087Z,7.33
2019-04-20T14:49:22.887Z,6.45
2019-04-20T14:51:54.590Z,6.80
2019-04-20T14:54:25.540Z,6.72
2019-04-20T14:56:55.879Z,6.60
2019-04-20T14:59:29.767Z,6.15
2019-04-20T15:02:08.729Z,10.08
2019-04-20T15:04:39.092Z,27.30
2019-04-20T15:07:10.736Z,11.33
2019-04-20T15:09:40.713Z,7.10
2019-04-20T15:12:10.996Z,6.90
2019-04-20T15:14:41.218Z,6.20
2019-04-20T15:17:12.500Z,6.40
2019-04-20T15:19:47.618Z,6.85
2019-04-20T15:22:33.796Z,6.78
2019-04-20T15:25:03.804Z,6.60
2019-04-20T15:27:33.505Z,6.35
2019-04-20T15:30:04.511Z,6.97
2019-04-20T15:32:34.283Z,7.90
2019-04-20T15:35:04.844Z,10.55
2019-04-20T15:37:35.140Z,7.53
2019-04-20T15:40:06.437Z,6.85
2019-04-20T15:42:49.330Z,8.83
2019-04-20T15:45:09.327Z,7.03
2019-04-20T15:47:40.337Z,6.17
2019-04-20T15:50:11.798Z,7.65
2019-04-20T15:52:49.438Z,6.10
2019-04-20T15:55:22.623Z,7.22
2019-04-20T15:57:48.155Z,6.35
2019-04-20T16:00:18.457Z,6.53
2019-04-20T16:02:56.858Z,6.03
2019-04-20T16:05:47.179Z,7.03
2019-04-20T16:08:38.764Z,6.65
2019-04-20T16:11:09.205Z,6.33
2019-04-20T16:13:43.997Z,6.58
2019-04-20T16:16:12.152Z,6.58
2019-04-20T16:18:43.226Z,6.75
2019-04-20T16:21:18.291Z,6.47
2019-04-20T16:24:16.936Z,7.20
2019-04-20T16:27:12.073Z,6.83
2019-04-20T16:29:41.921Z,6.50
2019-04-20T16:32:12.290Z,6.03
2019-04-20T16:34:42.550Z,6.40
2019-04-20T16:37:14.702Z,6.30
2019-04-20T16:39:46.369Z,5.47
2019-04-20T16:42:18.010Z,5.28
2019-04-20T16:44:49.165Z,5.92
2019-04-20T16:47:19.102Z,5.37
2019-04-20T16:49:50.867Z,5.90
2019-04-20T16:52:21.224Z,6.10
2019-04-20T16:54:51.318Z,6.15
2019-04-20T16:57:21.545Z,6.15
2019-04-20T16:59:54.730Z,5.58
2019-04-20T17:02:24.572Z,6.17
2019-04-20T17:04:56.270Z,5.60
2019-04-20T17:07:29.258Z,6.42
2019-04-20T17:10:00.088Z,6.20
2019-04-20T17:12:30.280Z,5.90
2019-04-20T17:15:01.284Z,6.25
2019-04-20T17:17:31.620Z,6.17
2019-04-20T17:20:01.896Z,6.28
2019-04-20T17:22:32.062Z,5.45
2019-04-20T17:25:02.180Z,6.22
2019-04-20T17:27:57.362Z,5.67
2019-04-20T17:30:45.137Z,6.12
2019-04-20T17:33:16.314Z,5.92
2019-04-20T17:35:59.374Z,5.85
2019-04-20T17:38:18.758Z,6.70
2019-04-20T17:41:03.047Z,43.48
2019-04-20T17:43:29.179Z,36.95
2019-04-20T17:46:00.649Z,10.30
2019-04-20T17:48:33.303Z,7.30
2019-04-20T17:51:16.855Z,7.33
2019-04-20T17:54:06.281Z,10.28
2019-04-20T17:56:36.258Z,17.37
2019-04-20T17:59:06.232Z,10.15
2019-04-20T18:02:07.792Z,18.40
2019-04-20T18:04:54.931Z,53.17
2019-04-20T18:07:18.344Z,19.98
2019-04-20T18:09:49.417Z,14.75
2019-04-20T18:12:07.582Z,49.65
2019-04-20T18:14:51.698Z,52.33
2019-04-20T18:17:29.347Z,13.03
2019-04-20T18:19:52.151Z,11.90
2019-04-20T18:22:23.568Z,13.13
2019-04-20T18:25:13.477Z,9.10
2019-04-20T18:27:41.132Z,8.30
2019-04-20T18:30:10.692Z,11.38
2019-04-20T18:32:33.607Z,9.03
2019-04-20T18:35:10.396Z,7.85
2019-04-20T18:37:45.353Z,8.10
2019-04-20T18:40:14.897Z,8.38
2019-04-20T18:42:45.720Z,8.23
2019-04-20T18:45:30.613Z,9.05
2019-04-20T18:48:06.594Z,8.33
2019-04-20T18:50:29.970Z,9.88
2019-04-20T18:52:51.638Z,9.53
2019-04-20T18:55:31.229Z,10.00
2019-04-20T18:57:53.056Z,10.45
2019-04-20T19:00:30.300Z,9.75
2019-04-20T19:03:01.369Z,9.90
2019-04-20T19:05:29.590Z,10.63
2019-04-20T19:08:04.613Z,10.25
2019-04-20T19:10:35.010Z,10.20
2019-04-20T19:13:08.447Z,11.03
2019-04-20T19:16:10.310Z,10.20
2019-04-20T19:19:03.925Z,10.03
2019-04-20T19:21:25.009Z,9.98
2019-04-20T19:24:03.335Z,9.98
2019-04-20T19:26:27.307Z,10.10
2019-04-20T19:29:08.738Z,10.70
2019-04-20T19:31:45.833Z,10.20
2019-04-20T19:34:20.853Z,11.12
2019-04-20T19:36:41.407Z,11.53
2019-04-20T19:39:21.341Z,11.75
2019-04-20T19:41:49.806Z,11.33
2019-04-20T19:44:21.344Z,10.90
2019-04-20T19:47:04.927Z,11.48
2019-04-20T19:49:25.382Z,11.28
2019-04-20T19:52:20.126Z,10.85
2019-04-20T19:54:41.071Z,11.90
2019-04-20T19:57:05.000Z,11.12
2019-04-20T19:59:29.367Z,10.80
2019-04-20T20:01:51.866Z,11.63
2019-04-20T20:04:21.761Z,12.95
2019-04-20T20:06:57.901Z,12.88
2019-04-20T20:09:23.900Z,12.00
2019-04-20T20:11:58.551Z,11.75
2019-04-20T20:14:32.885Z,12.15
2019-04-20T20:17:14.259Z,11.97
2019-04-20T20:19:45.682Z,12.58
2019-04-20T20:22:12.753Z,12.78
2019-04-20T20:24:31.460Z,12.58
2019-04-20T20:27:06.256Z,13.28
2019-04-20T20:29:38.428Z,13.43
2019-04-20T20:32:18.107Z,12.23
2019-04-20T20:34:43.167Z,11.93
2019-04-20T20:37:12.366Z,11.63
2019-04-20T20:39:40.394Z,11.83
2019-04-20T20:42:26.073Z,11.48
2019-04-20T20:44:51.766Z,13.03
2019-04-20T20:47:39.689Z,11.78
2019-04-20T20:50:08.258Z,12.50
2019-04-20T20:52:31.539Z,12.23
2019-04-20T20:54:54.045Z,12.33
2019-04-20T20:57:23.923Z,12.45
2019-04-20T20:59:57.384Z,11.93
2019-04-20T21:02:30.121Z,12.37
2019-04-20T21:04:53.551Z,12.70
2019-04-20T21:07:24.749Z,12.80
2019-04-20T21:09:54.865Z,12.47
2019-04-20T21:12:25.783Z,12.70
2019-04-20T21:15:00.378Z,12.13
2019-04-20T21:17:40.964Z,12.80
2019-04-20T21:20:15.679Z,13.20
2019-04-20T21:22:51.712Z,11.85
2019-04-20T21:25:03.460Z,12.78
2019-04-20T21:27:34.834Z,13.38
2019-04-20T21:30:15.575Z,12.90
2019-04-20T21:32:44.352Z,12.78
2019-04-20T21:35:13.861Z,13.55
2019-04-20T21:37:51.200Z,12.60
2019-04-20T21:40:23.809Z,12.70
2019-04-20T21:42:53.563Z,13.25
2019-04-20T21:45:23.030Z,13.48
2019-04-20T21:47:48.263Z,13.50
2019-04-20T21:50:34.886Z,14.35
2019-04-20T21:52:53.465Z,13.53
2019-04-20T21:55:21.817Z,14.43
2019-04-20T21:57:55.394Z,14.90
2019-04-20T22:00:44.569Z,15.10
2019-04-20T22:03:15.524Z,15.15
2019-04-20T22:05:46.434Z,15.08
2019-04-20T22:08:18.107Z,16.02
2019-04-20T22:10:50.055Z,15.65
2019-04-20T22:13:25.491Z,15.40
2019-04-20T22:15:59.496Z,15.93
2019-04-20T22:18:23.909Z,16.30
2019-04-20T22:21:05.960Z,16.02
2019-04-20T22:23:43.012Z,15.10
2019-04-20T22:26:08.617Z,15.78
2019-04-20T22:28:28.017Z,15.65
2019-04-20T22:30:58.294Z,16.05
2019-04-20T22:33:36.325Z,15.38
2019-04-20T22:36:07.619Z,16.35
2019-04-20T22:38:58.082Z,15.08
2019-04-20T22:41:27.797Z,15.08
2019-04-20T22:44:02.353Z,15.18
2019-04-20T22:46:33.629Z,14.65
2019-04-20T22:49:17.639Z,14.60
2019-04-20T22:51:47.538Z,14.68
2019-04-20T22:54:21.934Z,15.00
2019-04-20T22:56:47.318Z,15.28
2019-04-20T22:59:12.959Z,14.87
2019-04-20T23:01:45.803Z,14.25
2019-04-20T23:04:10.748Z,15.68
2019-04-20T23:06:44.704Z,14.93
2019-04-20T23:09:14.661Z,15.70
2019-04-20T23:11:45.085Z,13.45
2019-04-20T23:14:16.243Z,14.58
2019-04-20T23:16:50.651Z,14.55
2019-04-20T23:19:29.015Z,15.10
2019-04-20T23:21:57.559Z,15.73
2019-04-20T23:24:21.920Z,14.37
2019-04-20T23:26:53.066Z,14.87
2019-04-20T23:29:27.211Z,13.97
2019-04-20T23:31:59.644Z,15.57
2019-04-20T23:34:29.049Z,14.87
2019-04-20T23:36:57.054Z,15.07
2019-04-20T23:39:30.166Z,14.00
2019-04-20T23:42:03.379Z,15.07
2019-04-20T23:44:58.046Z,14.80
2019-04-20T23:47:57.429Z,14.80
2019-04-20T23:50:40.993Z,14.50
2019-04-20T23:53:18.195Z,14.17
2019-04-20T23:55:25.782Z,15.33
2019-04-20T23:57:59.492Z,15.47
